sensor_id;sensor_type;location;lat;lon;timestamp;temperature;humidity
8103;DHT22;4094;49.948;11.574;2022-09-01T00:00:04;21.40;55.70
8103;DHT22;4094;49.948;11.574;2022-09-01T00:02:34;21.30;55.90
8103;DHT22;4094;49.948;11.574;2022-09-01T00:05:07;21.30;55.90
8103;DHT22;4094;49.948;11.574;2022-09-01T00:07:36;21.30;56.10
8103;DHT22;4094;49.948;11.574;2022-09-01T00:10:07;21.20;56.00
8103;DHT22;4094;49.948;11.574;2022-09-01T00:12:37;21.20;56.20
8103;DHT22;4094;49.948;11.574;2022-09-01T00:15:08;21.10;56.40
8103;DHT22;4094;49.948;11.574;2022-09-01T00:17:37;21.10;56.60
8103;DHT22;4094;49.948;11.574;2022-09-01T00:20:09;21.00;56.70
8103;DHT22;4094;49.948;11.574;2022-09-01T00:22:38;21.00;56.80
8103;DHT22;4094;49.948;11.574;2022-09-01T00:25:07;21.00;56.80
8103;DHT22;4094;49.948;11.574;2022-09-01T00:27:37;20.90;56.80
8103;DHT22;4094;49.948;11.574;2022-09-01T00:30:07;20.90;56.80
8103;DHT22;4094;49.948;11.574;2022-09-01T00:32:36;20.90;57.00
8103;DHT22;4094;49.948;11.574;2022-09-01T00:35:06;20.90;57.00
8103;DHT22;4094;49.948;11.574;2022-09-01T00:37:37;20.80;57.10
8103;DHT22;4094;49.948;11.574;2022-09-01T00:40:08;20.80;57.10
8103;DHT22;4094;49.948;11.574;2022-09-01T00:42:39;20.80;57.10
8103;DHT22;4094;49.948;11.574;2022-09-01T00:45:09;20.80;57.20
8103;DHT22;4094;49.948;11.574;2022-09-01T00:47:38;20.80;57.20
8103;DHT22;4094;49.948;11.574;2022-09-01T00:50:10;20.70;57.10
8103;DHT22;4094;49.948;11.574;2022-09-01T00:52:44;20.70;57.10
8103;DHT22;4094;49.948;11.574;2022-09-01T00:55:17;20.70;57.20
8103;DHT22;4094;49.948;11.574;2022-09-01T00:57:49;20.60;57.40
8103;DHT22;4094;49.948;11.574;2022-09-01T01:00:21;20.60;57.30
8103;DHT22;4094;49.948;11.574;2022-09-01T01:02:50;20.50;57.30
8103;DHT22;4094;49.948;11.574;2022-09-01T01:05:24;20.50;57.30
8103;DHT22;4094;49.948;11.574;2022-09-01T01:07:56;20.50;57.50
8103;DHT22;4094;49.948;11.574;2022-09-01T01:10:26;20.40;57.50
8103;DHT22;4094;49.948;11.574;2022-09-01T01:12:59;20.40;57.60
8103;DHT22;4094;49.948;11.574;2022-09-01T01:15:31;20.40;57.80
8103;DHT22;4094;49.948;11.574;2022-09-01T01:18:00;20.40;57.80
8103;DHT22;4094;49.948;11.574;2022-09-01T01:20:30;20.30;57.80
8103;DHT22;4094;49.948;11.574;2022-09-01T01:23:23;20.30;57.80
8103;DHT22;4094;49.948;11.574;2022-09-01T01:25:56;20.30;57.90
8103;DHT22;4094;49.948;11.574;2022-09-01T01:28:30;20.20;57.90
8103;DHT22;4094;49.948;11.574;2022-09-01T01:31:03;20.20;58.10
8103;DHT22;4094;49.948;11.574;2022-09-01T01:33:35;20.20;58.10
8103;DHT22;4094;49.948;11.574;2022-09-01T01:36:12;20.20;58.70
8103;DHT22;4094;49.948;11.574;2022-09-01T01:38:45;20.10;58.10
8103;DHT22;4094;49.948;11.574;2022-09-01T01:41:17;20.10;58.20
8103;DHT22;4094;49.948;11.574;2022-09-01T01:43:48;20.00;58.30
8103;DHT22;4094;49.948;11.574;2022-09-01T01:46:20;20.00;58.40
8103;DHT22;4094;49.948;11.574;2022-09-01T01:48:50;20.00;58.40
8103;DHT22;4094;49.948;11.574;2022-09-01T01:51:21;19.90;58.50
8103;DHT22;4094;49.948;11.574;2022-09-01T01:53:54;19.90;58.50
8103;DHT22;4094;49.948;11.574;2022-09-01T01:56:25;19.90;58.70
8103;DHT22;4094;49.948;11.574;2022-09-01T01:58:55;19.80;58.70
8103;DHT22;4094;49.948;11.574;2022-09-01T02:01:27;19.80;58.60
8103;DHT22;4094;49.948;11.574;2022-09-01T02:04:00;19.80;58.60
8103;DHT22;4094;49.948;11.574;2022-09-01T02:06:33;19.80;58.50
8103;DHT22;4094;49.948;11.574;2022-09-01T02:09:02;19.70;58.60
8103;DHT22;4094;49.948;11.574;2022-09-01T02:11:34;19.70;58.60
8103;DHT22;4094;49.948;11.574;2022-09-01T02:14:06;19.60;58.70
8103;DHT22;4094;49.948;11.574;2022-09-01T02:16:36;19.60;58.90
8103;DHT22;4094;49.948;11.574;2022-09-01T02:19:06;19.60;58.90
8103;DHT22;4094;49.948;11.574;2022-09-01T02:21:38;19.50;59.50
8103;DHT22;4094;49.948;11.574;2022-09-01T02:24:11;19.50;59.00
8103;DHT22;4094;49.948;11.574;2022-09-01T02:26:42;19.50;59.10
8103;DHT22;4094;49.948;11.574;2022-09-01T02:29:18;19.50;59.20
8103;DHT22;4094;49.948;11.574;2022-09-01T02:31:50;19.40;59.20
8103;DHT22;4094;49.948;11.574;2022-09-01T02:34:21;19.40;59.20
8103;DHT22;4094;49.948;11.574;2022-09-01T02:36:54;19.40;59.20
8103;DHT22;4094;49.948;11.574;2022-09-01T02:39:26;19.40;59.10
8103;DHT22;4094;49.948;11.574;2022-09-01T02:41:57;19.30;59.10
8103;DHT22;4094;49.948;11.574;2022-09-01T02:44:29;19.30;59.20
8103;DHT22;4094;49.948;11.574;2022-09-01T02:46:59;19.30;59.30
8103;DHT22;4094;49.948;11.574;2022-09-01T02:49:33;19.20;59.30
8103;DHT22;4094;49.948;11.574;2022-09-01T02:52:02;19.20;59.30
8103;DHT22;4094;49.948;11.574;2022-09-01T02:54:33;19.20;59.40
8103;DHT22;4094;49.948;11.574;2022-09-01T02:57:04;19.10;59.40
8103;DHT22;4094;49.948;11.574;2022-09-01T02:59:35;19.10;59.50
8103;DHT22;4094;49.948;11.574;2022-09-01T03:02:10;19.10;59.40
8103;DHT22;4094;49.948;11.574;2022-09-01T03:04:39;19.10;59.30
8103;DHT22;4094;49.948;11.574;2022-09-01T03:07:08;19.00;59.30
8103;DHT22;4094;49.948;11.574;2022-09-01T03:09:37;19.00;59.20
8103;DHT22;4094;49.948;11.574;2022-09-01T03:12:09;19.00;59.40
8103;DHT22;4094;49.948;11.574;2022-09-01T03:14:38;18.90;59.40
8103;DHT22;4094;49.948;11.574;2022-09-01T03:17:07;18.90;59.40
8103;DHT22;4094;49.948;11.574;2022-09-01T03:19:36;18.90;59.50
8103;DHT22;4094;49.948;11.574;2022-09-01T03:22:11;18.80;59.50
8103;DHT22;4094;49.948;11.574;2022-09-01T03:24:41;18.80;59.50
8103;DHT22;4094;49.948;11.574;2022-09-01T03:27:11;18.70;59.40
8103;DHT22;4094;49.948;11.574;2022-09-01T03:29:41;18.70;59.50
8103;DHT22;4094;49.948;11.574;2022-09-01T03:32:10;18.70;59.50
8103;DHT22;4094;49.948;11.574;2022-09-01T03:34:39;18.70;59.50
8103;DHT22;4094;49.948;11.574;2022-09-01T03:37:08;18.60;60.10
8103;DHT22;4094;49.948;11.574;2022-09-01T03:39:38;18.60;59.70
8103;DHT22;4094;49.948;11.574;2022-09-01T03:42:08;18.60;59.70
8103;DHT22;4094;49.948;11.574;2022-09-01T03:44:41;18.50;59.70
8103;DHT22;4094;49.948;11.574;2022-09-01T03:47:14;18.50;59.80
8103;DHT22;4094;49.948;11.574;2022-09-01T03:49:44;18.40;59.80
8103;DHT22;4094;49.948;11.574;2022-09-01T03:52:16;18.40;59.80
8103;DHT22;4094;49.948;11.574;2022-09-01T03:54:45;18.40;59.90
8103;DHT22;4094;49.948;11.574;2022-09-01T03:57:20;18.30;59.80
8103;DHT22;4094;49.948;11.574;2022-09-01T03:59:51;18.40;60.10
8103;DHT22;4094;49.948;11.574;2022-09-01T04:02:22;18.30;60.00
8103;DHT22;4094;49.948;11.574;2022-09-01T04:04:56;18.30;60.00
8103;DHT22;4094;49.948;11.574;2022-09-01T04:07:31;18.30;60.00
8103;DHT22;4094;49.948;11.574;2022-09-01T04:10:00;18.30;60.00
8103;DHT22;4094;49.948;11.574;2022-09-01T04:12:29;18.30;60.00
8103;DHT22;4094;49.948;11.574;2022-09-01T04:15:01;18.20;59.90
8103;DHT22;4094;49.948;11.574;2022-09-01T04:17:30;18.20;59.80
8103;DHT22;4094;49.948;11.574;2022-09-01T04:20:17;18.20;59.90
8103;DHT22;4094;49.948;11.574;2022-09-01T04:22:48;18.20;59.80
8103;DHT22;4094;49.948;11.574;2022-09-01T04:25:19;18.20;59.80
8103;DHT22;4094;49.948;11.574;2022-09-01T04:27:54;18.10;59.80
8103;DHT22;4094;49.948;11.574;2022-09-01T04:30:25;18.10;59.80
8103;DHT22;4094;49.948;11.574;2022-09-01T04:32:59;18.10;59.80
8103;DHT22;4094;49.948;11.574;2022-09-01T04:35:29;18.10;59.80
8103;DHT22;4094;49.948;11.574;2022-09-01T04:38:05;18.00;59.90
8103;DHT22;4094;49.948;11.574;2022-09-01T04:40:37;18.00;59.90
8103;DHT22;4094;49.948;11.574;2022-09-01T04:43:07;18.00;60.00
8103;DHT22;4094;49.948;11.574;2022-09-01T04:45:39;17.90;59.90
8103;DHT22;4094;49.948;11.574;2022-09-01T04:48:09;17.90;60.00
8103;DHT22;4094;49.948;11.574;2022-09-01T04:50:39;17.90;60.10
8103;DHT22;4094;49.948;11.574;2022-09-01T04:53:17;17.90;60.10
8103;DHT22;4094;49.948;11.574;2022-09-01T04:55:50;17.90;60.30
8103;DHT22;4094;49.948;11.574;2022-09-01T04:58:21;17.80;60.20
8103;DHT22;4094;49.948;11.574;2022-09-01T05:00:51;17.80;60.40
8103;DHT22;4094;49.948;11.574;2022-09-01T05:03:22;17.80;60.40
8103;DHT22;4094;49.948;11.574;2022-09-01T05:06:12;17.80;60.40
8103;DHT22;4094;49.948;11.574;2022-09-01T05:08:47;17.80;60.40
8103;DHT22;4094;49.948;11.574;2022-09-01T05:11:33;17.80;60.40
8103;DHT22;4094;49.948;11.574;2022-09-01T05:14:10;17.80;60.50
8103;DHT22;4094;49.948;11.574;2022-09-01T05:16:41;17.80;60.60
8103;DHT22;4094;49.948;11.574;2022-09-01T05:19:11;17.80;60.70
8103;DHT22;4094;49.948;11.574;2022-09-01T05:21:43;17.80;60.50
8103;DHT22;4094;49.948;11.574;2022-09-01T05:24:15;17.80;60.60
8103;DHT22;4094;49.948;11.574;2022-09-01T05:26:45;17.80;60.60
8103;DHT22;4094;49.948;11.574;2022-09-01T05:29:16;17.80;60.40
8103;DHT22;4094;49.948;11.574;2022-09-01T05:31:48;17.90;60.50
8103;DHT22;4094;49.948;11.574;2022-09-01T05:34:20;17.90;60.40
8103;DHT22;4094;49.948;11.574;2022-09-01T05:36:55;17.90;60.40
8103;DHT22;4094;49.948;11.574;2022-09-01T05:39:26;17.90;60.70
8103;DHT22;4094;49.948;11.574;2022-09-01T05:41:55;17.90;60.80
8103;DHT22;4094;49.948;11.574;2022-09-01T05:44:26;18.00;60.90
8103;DHT22;4094;49.948;11.574;2022-09-01T05:46:58;18.00;60.70
8103;DHT22;4094;49.948;11.574;2022-09-01T05:49:30;18.10;60.70
8103;DHT22;4094;49.948;11.574;2022-09-01T05:52:03;18.10;60.50
8103;DHT22;4094;49.948;11.574;2022-09-01T05:54:32;18.20;60.40
8103;DHT22;4094;49.948;11.574;2022-09-01T05:57:03;18.20;60.30
8103;DHT22;4094;49.948;11.574;2022-09-01T05:59:54;18.30;60.60
8103;DHT22;4094;49.948;11.574;2022-09-01T06:02:27;18.30;60.50
8103;DHT22;4094;49.948;11.574;2022-09-01T06:04:58;18.30;60.30
8103;DHT22;4094;49.948;11.574;2022-09-01T06:07:31;18.40;60.40
8103;DHT22;4094;49.948;11.574;2022-09-01T06:10:06;18.40;60.40
8103;DHT22;4094;49.948;11.574;2022-09-01T06:12:36;18.50;60.30
8103;DHT22;4094;49.948;11.574;2022-09-01T06:15:08;18.50;60.20
8103;DHT22;4094;49.948;11.574;2022-09-01T06:17:48;18.60;60.10
8103;DHT22;4094;49.948;11.574;2022-09-01T06:20:18;18.70;60.10
8103;DHT22;4094;49.948;11.574;2022-09-01T06:22:47;18.70;59.90
8103;DHT22;4094;49.948;11.574;2022-09-01T06:25:17;18.80;59.80
8103;DHT22;4094;49.948;11.574;2022-09-01T06:27:48;18.90;60.50
8103;DHT22;4094;49.948;11.574;2022-09-01T06:30:20;18.90;59.70
8103;DHT22;4094;49.948;11.574;2022-09-01T06:33:02;18.90;59.70
8103;DHT22;4094;49.948;11.574;2022-09-01T06:35:36;19.00;59.70
8103;DHT22;4094;49.948;11.574;2022-09-01T06:38:05;19.00;59.50
8103;DHT22;4094;49.948;11.574;2022-09-01T06:40:39;19.10;59.40
8103;DHT22;4094;49.948;11.574;2022-09-01T06:43:12;19.10;59.30
8103;DHT22;4094;49.948;11.574;2022-09-01T06:45:47;19.20;59.30
8103;DHT22;4094;49.948;11.574;2022-09-01T06:48:24;19.30;59.20
8103;DHT22;4094;49.948;11.574;2022-09-01T06:51:00;19.40;59.40
8103;DHT22;4094;49.948;11.574;2022-09-01T06:53:54;19.40;59.30
8103;DHT22;4094;49.948;11.574;2022-09-01T06:56:31;19.60;59.20
8103;DHT22;4094;49.948;11.574;2022-09-01T06:59:12;19.60;59.00
8103;DHT22;4094;49.948;11.574;2022-09-01T07:01:45;19.70;58.70
8103;DHT22;4094;49.948;11.574;2022-09-01T07:04:19;19.80;58.70
8103;DHT22;4094;49.948;11.574;2022-09-01T07:06:56;19.90;58.60
8103;DHT22;4094;49.948;11.574;2022-09-01T07:09:46;20.00;58.60
8103;DHT22;4094;49.948;11.574;2022-09-01T07:12:40;20.10;58.40
8103;DHT22;4094;49.948;11.574;2022-09-01T07:15:32;20.20;58.30
8103;DHT22;4094;49.948;11.574;2022-09-01T07:18:24;20.40;58.40
8103;DHT22;4094;49.948;11.574;2022-09-01T07:20:55;20.50;58.30
8103;DHT22;4094;49.948;11.574;2022-09-01T07:23:47;20.70;58.90
8103;DHT22;4094;49.948;11.574;2022-09-01T07:26:36;20.80;58.10
8103;DHT22;4094;49.948;11.574;2022-09-01T07:29:15;21.00;57.90
8103;DHT22;4094;49.948;11.574;2022-09-01T07:31:49;21.20;56.80
8103;DHT22;4094;49.948;11.574;2022-09-01T07:34:41;21.30;56.60
8103;DHT22;4094;49.948;11.574;2022-09-01T07:37:18;21.40;56.10
8103;DHT22;4094;49.948;11.574;2022-09-01T07:40:12;21.60;55.90
8103;DHT22;4094;49.948;11.574;2022-09-01T07:43:15;21.80;56.40
8103;DHT22;4094;49.948;11.574;2022-09-01T07:46:25;21.90;55.60
8103;DHT22;4094;49.948;11.574;2022-09-01T07:49:17;22.20;55.50
8103;DHT22;4094;49.948;11.574;2022-09-01T07:52:08;22.40;56.10
8103;DHT22;4094;49.948;11.574;2022-09-01T07:54:38;22.50;54.70
8103;DHT22;4094;49.948;11.574;2022-09-01T07:57:08;22.70;55.10
8103;DHT22;4094;49.948;11.574;2022-09-01T07:59:39;22.80;54.30
8103;DHT22;4094;49.948;11.574;2022-09-01T08:02:17;22.90;53.90
8103;DHT22;4094;49.948;11.574;2022-09-01T08:04:49;23.00;53.60
8103;DHT22;4094;49.948;11.574;2022-09-01T08:07:19;23.10;53.50
8103;DHT22;4094;49.948;11.574;2022-09-01T08:09:51;23.10;53.10
8103;DHT22;4094;49.948;11.574;2022-09-01T08:12:28;23.10;52.90
8103;DHT22;4094;49.948;11.574;2022-09-01T08:14:57;23.10;52.70
8103;DHT22;4094;49.948;11.574;2022-09-01T08:17:49;23.00;52.60
8103;DHT22;4094;49.948;11.574;2022-09-01T08:20:21;23.00;52.30
8103;DHT22;4094;49.948;11.574;2022-09-01T08:23:14;22.90;52.20
8103;DHT22;4094;49.948;11.574;2022-09-01T08:25:48;22.80;52.30
8103;DHT22;4094;49.948;11.574;2022-09-01T08:28:19;22.80;52.60
8103;DHT22;4094;49.948;11.574;2022-09-01T08:30:56;22.70;52.30
8103;DHT22;4094;49.948;11.574;2022-09-01T08:33:27;22.70;52.50
8103;DHT22;4094;49.948;11.574;2022-09-01T08:36:00;22.70;52.40
8103;DHT22;4094;49.948;11.574;2022-09-01T08:38:30;22.70;52.30
8103;DHT22;4094;49.948;11.574;2022-09-01T08:41:01;22.70;52.80
8103;DHT22;4094;49.948;11.574;2022-09-01T08:43:48;22.70;52.70
8103;DHT22;4094;49.948;11.574;2022-09-01T08:46:22;22.70;52.60
8103;DHT22;4094;49.948;11.574;2022-09-01T08:48:55;22.70;52.20
8103;DHT22;4094;49.948;11.574;2022-09-01T08:52:13;22.70;52.20
8103;DHT22;4094;49.948;11.574;2022-09-01T08:54:48;22.70;52.50
8103;DHT22;4094;49.948;11.574;2022-09-01T08:57:23;22.70;52.30
8103;DHT22;4094;49.948;11.574;2022-09-01T09:00:26;22.70;52.20
8103;DHT22;4094;49.948;11.574;2022-09-01T09:03:08;22.70;52.20
8103;DHT22;4094;49.948;11.574;2022-09-01T09:05:50;22.60;52.10
8103;DHT22;4094;49.948;11.574;2022-09-01T09:08:48;22.70;51.90
8103;DHT22;4094;49.948;11.574;2022-09-01T09:11:39;22.60;51.60
8103;DHT22;4094;49.948;11.574;2022-09-01T09:14:28;22.60;51.50
8103;DHT22;4094;49.948;11.574;2022-09-01T09:17:02;22.60;51.60
8103;DHT22;4094;49.948;11.574;2022-09-01T09:19:34;22.60;51.80
8103;DHT22;4094;49.948;11.574;2022-09-01T09:22:06;22.60;51.30
8103;DHT22;4094;49.948;11.574;2022-09-01T09:24:44;22.60;51.30
8103;DHT22;4094;49.948;11.574;2022-09-01T09:27:22;22.60;51.40
8103;DHT22;4094;49.948;11.574;2022-09-01T09:29:56;22.60;51.20
8103;DHT22;4094;49.948;11.574;2022-09-01T09:32:44;22.70;51.50
8103;DHT22;4094;49.948;11.574;2022-09-01T09:35:35;22.70;51.40
8103;DHT22;4094;49.948;11.574;2022-09-01T09:38:23;22.80;50.60
8103;DHT22;4094;49.948;11.574;2022-09-01T09:40:59;22.80;50.70
8103;DHT22;4094;49.948;11.574;2022-09-01T09:43:51;22.80;50.40
8103;DHT22;4094;49.948;11.574;2022-09-01T09:46:27;22.90;50.00
8103;DHT22;4094;49.948;11.574;2022-09-01T09:49:11;22.90;50.30
8103;DHT22;4094;49.948;11.574;2022-09-01T09:51:43;22.90;49.80
8103;DHT22;4094;49.948;11.574;2022-09-01T09:54:19;23.00;49.70
8103;DHT22;4094;49.948;11.574;2022-09-01T09:57:03;23.00;49.60
8103;DHT22;4094;49.948;11.574;2022-09-01T09:59:36;23.00;49.00
8103;DHT22;4094;49.948;11.574;2022-09-01T10:02:31;23.10;48.80
8103;DHT22;4094;49.948;11.574;2022-09-01T10:05:22;23.10;49.00
8103;DHT22;4094;49.948;11.574;2022-09-01T10:07:54;23.10;48.50
8103;DHT22;4094;49.948;11.574;2022-09-01T10:10:28;23.10;48.20
8103;DHT22;4094;49.948;11.574;2022-09-01T10:12:58;23.10;48.50
8103;DHT22;4094;49.948;11.574;2022-09-01T10:15:31;23.10;49.00
8103;DHT22;4094;49.948;11.574;2022-09-01T10:18:06;23.10;48.80
8103;DHT22;4094;49.948;11.574;2022-09-01T10:20:52;23.10;48.90
8103;DHT22;4094;49.948;11.574;2022-09-01T10:23:22;23.20;49.00
8103;DHT22;4094;49.948;11.574;2022-09-01T10:26:01;23.20;48.90
8103;DHT22;4094;49.948;11.574;2022-09-01T10:28:40;23.20;48.90
8103;DHT22;4094;49.948;11.574;2022-09-01T10:31:17;23.30;48.40
8103;DHT22;4094;49.948;11.574;2022-09-01T10:33:49;23.40;48.50
8103;DHT22;4094;49.948;11.574;2022-09-01T10:36:19;23.40;47.90
8103;DHT22;4094;49.948;11.574;2022-09-01T10:38:51;23.50;47.80
8103;DHT22;4094;49.948;11.574;2022-09-01T10:41:49;23.50;48.10
8103;DHT22;4094;49.948;11.574;2022-09-01T10:44:28;23.60;48.10
8103;DHT22;4094;49.948;11.574;2022-09-01T10:47:02;23.60;48.20
8103;DHT22;4094;49.948;11.574;2022-09-01T10:52:53;23.60;46.90
8103;DHT22;4094;49.948;11.574;2022-09-01T10:55:31;23.60;47.30
8103;DHT22;4094;49.948;11.574;2022-09-01T11:02:10;23.60;47.10
8103;DHT22;4094;49.948;11.574;2022-09-01T11:05:15;23.70;47.30
8103;DHT22;4094;49.948;11.574;2022-09-01T11:07:44;23.70;47.30
8103;DHT22;4094;49.948;11.574;2022-09-01T11:10:42;23.70;47.20
8103;DHT22;4094;49.948;11.574;2022-09-01T11:13:35;23.70;46.80
8103;DHT22;4094;49.948;11.574;2022-09-01T11:16:29;23.80;47.00
8103;DHT22;4094;49.948;11.574;2022-09-01T11:19:31;23.90;46.90
8103;DHT22;4094;49.948;11.574;2022-09-01T11:22:09;23.90;47.00
8103;DHT22;4094;49.948;11.574;2022-09-01T11:24:47;23.90;47.00
8103;DHT22;4094;49.948;11.574;2022-09-01T11:28:02;23.90;47.00
8103;DHT22;4094;49.948;11.574;2022-09-01T11:30:35;23.90;47.10
8103;DHT22;4094;49.948;11.574;2022-09-01T11:33:31;23.90;47.00
8103;DHT22;4094;49.948;11.574;2022-09-01T11:36:05;24.00;46.80
8103;DHT22;4094;49.948;11.574;2022-09-01T11:38:45;23.90;46.20
8103;DHT22;4094;49.948;11.574;2022-09-01T11:41:25;23.90;45.80
8103;DHT22;4094;49.948;11.574;2022-09-01T11:44:11;23.90;46.30
8103;DHT22;4094;49.948;11.574;2022-09-01T11:46:41;23.90;46.50
8103;DHT22;4094;49.948;11.574;2022-09-01T11:49:27;23.90;46.40
8103;DHT22;4094;49.948;11.574;2022-09-01T11:51:58;23.90;46.60
8103;DHT22;4094;49.948;11.574;2022-09-01T11:54:37;23.90;46.60
8103;DHT22;4094;49.948;11.574;2022-09-01T11:57:26;23.90;46.60
8103;DHT22;4094;49.948;11.574;2022-09-01T11:59:59;23.90;46.20
8103;DHT22;4094;49.948;11.574;2022-09-01T12:02:30;24.00;46.20
8103;DHT22;4094;49.948;11.574;2022-09-01T12:05:24;24.00;46.40
8103;DHT22;4094;49.948;11.574;2022-09-01T12:07:54;24.10;46.30
8103;DHT22;4094;49.948;11.574;2022-09-01T12:10:30;24.10;46.30
8103;DHT22;4094;49.948;11.574;2022-09-01T12:13:01;24.10;45.90
8103;DHT22;4094;49.948;11.574;2022-09-01T12:15:33;24.10;45.80
8103;DHT22;4094;49.948;11.574;2022-09-01T12:18:13;24.10;45.20
8103;DHT22;4094;49.948;11.574;2022-09-01T12:20:47;24.10;45.00
8103;DHT22;4094;49.948;11.574;2022-09-01T12:23:22;24.10;45.50
8103;DHT22;4094;49.948;11.574;2022-09-01T12:25:53;24.10;45.70
8103;DHT22;4094;49.948;11.574;2022-09-01T12:28:24;24.20;45.80
8103;DHT22;4094;49.948;11.574;2022-09-01T12:31:00;24.20;45.60
8103;DHT22;4094;49.948;11.574;2022-09-01T12:33:34;24.20;45.20
8103;DHT22;4094;49.948;11.574;2022-09-01T12:36:21;24.30;45.70
8103;DHT22;4094;49.948;11.574;2022-09-01T12:38:52;24.40;45.40
8103;DHT22;4094;49.948;11.574;2022-09-01T12:41:31;24.40;45.70
8103;DHT22;4094;49.948;11.574;2022-09-01T12:44:28;24.40;45.30
8103;DHT22;4094;49.948;11.574;2022-09-01T12:47:01;24.50;44.80
8103;DHT22;4094;49.948;11.574;2022-09-01T12:49:36;24.60;43.90
8103;DHT22;4094;49.948;11.574;2022-09-01T12:52:24;24.60;43.90
8103;DHT22;4094;49.948;11.574;2022-09-01T12:55:08;24.60;44.40
8103;DHT22;4094;49.948;11.574;2022-09-01T12:58:02;24.70;44.20
8103;DHT22;4094;49.948;11.574;2022-09-01T13:00:34;24.90;43.90
8103;DHT22;4094;49.948;11.574;2022-09-01T13:03:09;25.00;44.00
8103;DHT22;4094;49.948;11.574;2022-09-01T13:05:41;25.20;44.10
8103;DHT22;4094;49.948;11.574;2022-09-01T13:08:13;25.40;44.20
8103;DHT22;4094;49.948;11.574;2022-09-01T13:10:45;25.50;43.50
8103;DHT22;4094;49.948;11.574;2022-09-01T13:13:15;25.70;43.20
8103;DHT22;4094;49.948;11.574;2022-09-01T13:15:46;25.70;42.90
8103;DHT22;4094;49.948;11.574;2022-09-01T13:18:18;25.80;42.70
8103;DHT22;4094;49.948;11.574;2022-09-01T13:21:09;26.00;42.10
8103;DHT22;4094;49.948;11.574;2022-09-01T13:23:39;26.00;41.60
8103;DHT22;4094;49.948;11.574;2022-09-01T13:26:11;26.00;41.50
8103;DHT22;4094;49.948;11.574;2022-09-01T13:28:40;25.90;41.30
8103;DHT22;4094;49.948;11.574;2022-09-01T13:31:09;25.80;40.70
8103;DHT22;4094;49.948;11.574;2022-09-01T13:34:01;25.70;41.50
8103;DHT22;4094;49.948;11.574;2022-09-01T13:36:49;25.70;41.50
8103;DHT22;4094;49.948;11.574;2022-09-01T13:39:20;25.60;41.40
8103;DHT22;4094;49.948;11.574;2022-09-01T13:41:50;25.50;41.20
8103;DHT22;4094;49.948;11.574;2022-09-01T13:44:19;25.50;41.00
8103;DHT22;4094;49.948;11.574;2022-09-01T13:46:48;25.40;40.50
8103;DHT22;4094;49.948;11.574;2022-09-01T13:49:38;25.40;40.80
8103;DHT22;4094;49.948;11.574;2022-09-01T13:52:28;25.30;40.40
8103;DHT22;4094;49.948;11.574;2022-09-01T13:54:57;25.20;40.60
8103;DHT22;4094;49.948;11.574;2022-09-01T13:57:26;25.20;40.90
8103;DHT22;4094;49.948;11.574;2022-09-01T14:00:04;25.20;41.60
8103;DHT22;4094;49.948;11.574;2022-09-01T14:02:38;25.20;41.50
8103;DHT22;4094;49.948;11.574;2022-09-01T14:05:09;25.20;41.20
8103;DHT22;4094;49.948;11.574;2022-09-01T14:07:39;25.20;41.00
8103;DHT22;4094;49.948;11.574;2022-09-01T14:10:08;25.20;41.70
8103;DHT22;4094;49.948;11.574;2022-09-01T14:12:38;25.30;41.40
8103;DHT22;4094;49.948;11.574;2022-09-01T14:15:09;25.40;41.80
8103;DHT22;4094;49.948;11.574;2022-09-01T14:17:44;25.40;41.40
8103;DHT22;4094;49.948;11.574;2022-09-01T14:20:17;25.40;41.00
8103;DHT22;4094;49.948;11.574;2022-09-01T14:22:47;25.40;40.40
8103;DHT22;4094;49.948;11.574;2022-09-01T14:25:17;25.40;40.80
8103;DHT22;4094;49.948;11.574;2022-09-01T14:27:48;25.40;41.00
8103;DHT22;4094;49.948;11.574;2022-09-01T14:30:20;25.30;40.90
8103;DHT22;4094;49.948;11.574;2022-09-01T14:32:52;25.30;41.10
8103;DHT22;4094;49.948;11.574;2022-09-01T14:35:23;25.20;41.40
8103;DHT22;4094;49.948;11.574;2022-09-01T14:37:54;25.20;41.30
8103;DHT22;4094;49.948;11.574;2022-09-01T14:40:23;25.10;41.10
8103;DHT22;4094;49.948;11.574;2022-09-01T14:42:53;25.00;41.20
8103;DHT22;4094;49.948;11.574;2022-09-01T14:45:24;25.00;41.30
8103;DHT22;4094;49.948;11.574;2022-09-01T14:47:56;24.90;41.20
8103;DHT22;4094;49.948;11.574;2022-09-01T14:50:30;24.90;41.30
8103;DHT22;4094;49.948;11.574;2022-09-01T14:53:01;24.90;41.30
8103;DHT22;4094;49.948;11.574;2022-09-01T14:55:30;24.80;41.30
8103;DHT22;4094;49.948;11.574;2022-09-01T14:58:00;24.80;41.30
8103;DHT22;4094;49.948;11.574;2022-09-01T15:00:29;24.80;41.50
8103;DHT22;4094;49.948;11.574;2022-09-01T15:03:00;24.70;41.40
8103;DHT22;4094;49.948;11.574;2022-09-01T15:05:31;24.70;41.40
8103;DHT22;4094;49.948;11.574;2022-09-01T15:08:07;24.70;41.60
8103;DHT22;4094;49.948;11.574;2022-09-01T15:10:44;24.60;41.40
8103;DHT22;4094;49.948;11.574;2022-09-01T15:13:13;24.60;41.50
8103;DHT22;4094;49.948;11.574;2022-09-01T15:15:42;24.60;41.60
8103;DHT22;4094;49.948;11.574;2022-09-01T15:18:11;24.60;41.70
8103;DHT22;4094;49.948;11.574;2022-09-01T15:20:42;24.60;41.50
8103;DHT22;4094;49.948;11.574;2022-09-01T15:23:15;24.60;41.80
8103;DHT22;4094;49.948;11.574;2022-09-01T15:25:45;24.60;41.70
8103;DHT22;4094;49.948;11.574;2022-09-01T15:28:15;24.60;41.60
8103;DHT22;4094;49.948;11.574;2022-09-01T15:30:45;24.50;40.90
8103;DHT22;4094;49.948;11.574;2022-09-01T15:33:14;24.50;41.10
8103;DHT22;4094;49.948;11.574;2022-09-01T15:35:45;24.50;41.00
8103;DHT22;4094;49.948;11.574;2022-09-01T15:38:15;24.40;40.90
8103;DHT22;4094;49.948;11.574;2022-09-01T15:40:46;24.30;40.30
8103;DHT22;4094;49.948;11.574;2022-09-01T15:43:26;24.30;40.70
8103;DHT22;4094;49.948;11.574;2022-09-01T15:45:57;24.30;40.60
8103;DHT22;4094;49.948;11.574;2022-09-01T15:48:27;24.30;40.80
8103;DHT22;4094;49.948;11.574;2022-09-01T15:51:11;24.20;40.60
8103;DHT22;4094;49.948;11.574;2022-09-01T15:53:55;24.20;40.50
8103;DHT22;4094;49.948;11.574;2022-09-01T15:56:25;24.20;40.20
8103;DHT22;4094;49.948;11.574;2022-09-01T15:58:54;24.20;40.30
8103;DHT22;4094;49.948;11.574;2022-09-01T16:01:30;24.20;40.40
8103;DHT22;4094;49.948;11.574;2022-09-01T16:04:00;24.20;40.30
8103;DHT22;4094;49.948;11.574;2022-09-01T16:06:33;24.10;40.10
8103;DHT22;4094;49.948;11.574;2022-09-01T16:09:03;24.10;39.90
8103;DHT22;4094;49.948;11.574;2022-09-01T16:11:32;24.10;40.20
8103;DHT22;4094;49.948;11.574;2022-09-01T16:14:03;24.10;40.10
8103;DHT22;4094;49.948;11.574;2022-09-01T16:16:42;24.10;40.20
8103;DHT22;4094;49.948;11.574;2022-09-01T16:19:21;24.10;40.20
8103;DHT22;4094;49.948;11.574;2022-09-01T16:21:58;24.10;40.50
8103;DHT22;4094;49.948;11.574;2022-09-01T16:24:29;24.10;40.60
8103;DHT22;4094;49.948;11.574;2022-09-01T16:26:58;24.10;40.30
8103;DHT22;4094;49.948;11.574;2022-09-01T16:29:43;24.10;40.30
8103;DHT22;4094;49.948;11.574;2022-09-01T16:32:13;24.10;41.10
8103;DHT22;4094;49.948;11.574;2022-09-01T16:34:43;24.10;40.80
8103;DHT22;4094;49.948;11.574;2022-09-01T16:37:36;24.10;40.30
8103;DHT22;4094;49.948;11.574;2022-09-01T16:40:15;24.10;40.60
8103;DHT22;4094;49.948;11.574;2022-09-01T16:42:51;24.10;40.00